sensor_id;sensor_type;location;lat;lon;timestamp;P1;durP1;ratioP1;P2;durP2;ratioP2
24467;SDS011;12634;50.852;5.676;2023-03-23T00:01:26;4.38;;;2.28;;
24467;SDS011;12634;50.852;5.676;2023-03-23T00:03:56;4.50;;;2.30;;
24467;SDS011;12634;50.852;5.676;2023-03-23T00:06:25;4.10;;;2.20;;
24467;SDS011;12634;50.852;5.676;2023-03-23T00:09:01;5.10;;;2.53;;
24467;SDS011;12634;50.852;5.676;2023-03-23T00:11:29;3.30;;;2.22;;
24467;SDS011;12634;50.852;5.676;2023-03-23T00:13:58;5.22;;;2.88;;
24467;SDS011;12634;50.852;5.676;2023-03-23T00:16:28;4.97;;;2.67;;
24467;SDS011;12634;50.852;5.676;2023-03-23T00:18:57;5.28;;;2.70;;
24467;SDS011;12634;50.852;5.676;2023-03-23T00:21:27;5.72;;;2.20;;
24467;SDS011;12634;50.852;5.676;2023-03-23T00:24:02;4.40;;;2.20;;
24467;SDS011;12634;50.852;5.676;2023-03-23T00:26:31;6.03;;;2.60;;
24467;SDS011;12634;50.852;5.676;2023-03-23T00:29:00;3.33;;;2.13;;
24467;SDS011;12634;50.852;5.676;2023-03-23T00:31:28;5.35;;;2.40;;
24467;SDS011;12634;50.852;5.676;2023-03-23T00:33:58;5.70;;;2.40;;
24467;SDS011;12634;50.852;5.676;2023-03-23T00:36:29;4.47;;;2.10;;
24467;SDS011;12634;50.852;5.676;2023-03-23T00:38:57;5.22;;;2.40;;
24467;SDS011;12634;50.852;5.676;2023-03-23T00:41:26;6.50;;;2.60;;
24467;SDS011;12634;50.852;5.676;2023-03-23T00:43:54;3.83;;;2.20;;
24467;SDS011;12634;50.852;5.676;2023-03-23T00:46:22;5.35;;;2.53;;
24467;SDS011;12634;50.852;5.676;2023-03-23T00:48:50;6.07;;;2.67;;
24467;SDS011;12634;50.852;5.676;2023-03-23T00:51:17;3.95;;;2.38;;
24467;SDS011;12634;50.852;5.676;2023-03-23T00:53:45;4.30;;;2.20;;
24467;SDS011;12634;50.852;5.676;2023-03-23T00:56:13;4.97;;;2.30;;
24467;SDS011;12634;50.852;5.676;2023-03-23T00:58:42;3.78;;;2.33;;
24467;SDS011;12634;50.852;5.676;2023-03-23T01:01:09;4.28;;;2.10;;
24467;SDS011;12634;50.852;5.676;2023-03-23T01:03:36;4.47;;;2.55;;
24467;SDS011;12634;50.852;5.676;2023-03-23T01:06:04;3.75;;;2.40;;
24467;SDS011;12634;50.852;5.676;2023-03-23T01:08:33;4.20;;;2.42;;
24467;SDS011;12634;50.852;5.676;2023-03-23T01:11:05;6.20;;;2.50;;
24467;SDS011;12634;50.852;5.676;2023-03-23T01:13:32;4.43;;;2.30;;
24467;SDS011;12634;50.852;5.676;2023-03-23T01:16:01;7.15;;;2.65;;
24467;SDS011;12634;50.852;5.676;2023-03-23T01:18:28;5.20;;;2.67;;
24467;SDS011;12634;50.852;5.676;2023-03-23T01:20:55;4.68;;;2.60;;
24467;SDS011;12634;50.852;5.676;2023-03-23T01:23:23;4.68;;;2.40;;
24467;SDS011;12634;50.852;5.676;2023-03-23T01:25:50;4.30;;;2.78;;
24467;SDS011;12634;50.852;5.676;2023-03-23T01:28:19;4.80;;;2.33;;
24467;SDS011;12634;50.852;5.676;2023-03-23T01:30:46;6.53;;;3.10;;
24467;SDS011;12634;50.852;5.676;2023-03-23T01:33:15;5.05;;;2.78;;
24467;SDS011;12634;50.852;5.676;2023-03-23T01:35:42;3.50;;;2.30;;
24467;SDS011;12634;50.852;5.676;2023-03-23T01:38:09;4.05;;;2.45;;
24467;SDS011;12634;50.852;5.676;2023-03-23T01:40:36;4.88;;;2.83;;
24467;SDS011;12634;50.852;5.676;2023-03-23T01:43:07;3.80;;;2.30;;
24467;SDS011;12634;50.852;5.676;2023-03-23T01:45:39;3.88;;;2.42;;
24467;SDS011;12634;50.852;5.676;2023-03-23T01:48:08;4.78;;;2.50;;
24467;SDS011;12634;50.852;5.676;2023-03-23T01:50:43;4.32;;;2.25;;
24467;SDS011;12634;50.852;5.676;2023-03-23T01:53:17;5.20;;;2.20;;
24467;SDS011;12634;50.852;5.676;2023-03-23T01:55:45;4.88;;;2.17;;
24467;SDS011;12634;50.852;5.676;2023-03-23T01:58:17;3.80;;;2.35;;
24467;SDS011;12634;50.852;5.676;2023-03-23T02:00:50;3.08;;;1.80;;
24467;SDS011;12634;50.852;5.676;2023-03-23T02:03:18;3.35;;;1.92;;
24467;SDS011;12634;50.852;5.676;2023-03-23T02:05:49;5.07;;;2.25;;
24467;SDS011;12634;50.852;5.676;2023-03-23T02:08:18;3.67;;;2.33;;
24467;SDS011;12634;50.852;5.676;2023-03-23T02:10:45;3.78;;;2.00;;
24467;SDS011;12634;50.852;5.676;2023-03-23T02:13:12;3.10;;;1.85;;
24467;SDS011;12634;50.852;5.676;2023-03-23T02:15:45;4.22;;;2.22;;
24467;SDS011;12634;50.852;5.676;2023-03-23T02:18:21;4.30;;;2.10;;
24467;SDS011;12634;50.852;5.676;2023-03-23T02:27:23;2.67;;;1.85;;
24467;SDS011;12634;50.852;5.676;2023-03-23T02:30:21;3.80;;;2.05;;
24467;SDS011;12634;50.852;5.676;2023-03-23T02:33:12;3.83;;;1.95;;
24467;SDS011;12634;50.852;5.676;2023-03-23T02:35:56;3.38;;;2.30;;
24467;SDS011;12634;50.852;5.676;2023-03-23T02:38:28;3.70;;;1.83;;
24467;SDS011;12634;50.852;5.676;2023-03-23T02:40:59;4.90;;;2.25;;
24467;SDS011;12634;50.852;5.676;2023-03-23T02:43:30;3.30;;;2.10;;
24467;SDS011;12634;50.852;5.676;2023-03-23T02:46:01;3.55;;;1.92;;
24467;SDS011;12634;50.852;5.676;2023-03-23T02:48:35;3.85;;;2.20;;
24467;SDS011;12634;50.852;5.676;2023-03-23T02:51:05;2.97;;;2.13;;
24467;SDS011;12634;50.852;5.676;2023-03-23T02:53:34;3.85;;;2.38;;
24467;SDS011;12634;50.852;5.676;2023-03-23T02:56:04;3.63;;;2.33;;
24467;SDS011;12634;50.852;5.676;2023-03-23T02:58:35;3.67;;;2.05;;
24467;SDS011;12634;50.852;5.676;2023-03-23T03:01:16;3.60;;;2.20;;
24467;SDS011;12634;50.852;5.676;2023-03-23T03:04:23;4.65;;;2.33;;
24467;SDS011;12634;50.852;5.676;2023-03-23T03:07:00;2.78;;;1.98;;
24467;SDS011;12634;50.852;5.676;2023-03-23T03:09:46;3.08;;;2.03;;
24467;SDS011;12634;50.852;5.676;2023-03-23T03:12:18;4.13;;;2.20;;
24467;SDS011;12634;50.852;5.676;2023-03-23T03:14:54;3.30;;;2.10;;
24467;SDS011;12634;50.852;5.676;2023-03-23T03:17:30;5.65;;;1.98;;
24467;SDS011;12634;50.852;5.676;2023-03-23T03:20:02;3.25;;;2.25;;
24467;SDS011;12634;50.852;5.676;2023-03-23T03:22:34;3.58;;;2.05;;
24467;SDS011;12634;50.852;5.676;2023-03-23T03:25:04;3.30;;;1.75;;
24467;SDS011;12634;50.852;5.676;2023-03-23T03:27:33;3.05;;;1.83;;
24467;SDS011;12634;50.852;5.676;2023-03-23T03:30:01;3.72;;;1.90;;
24467;SDS011;12634;50.852;5.676;2023-03-23T03:32:34;5.30;;;2.17;;
24467;SDS011;12634;50.852;5.676;2023-03-23T03:35:08;4.68;;;2.15;;
24467;SDS011;12634;50.852;5.676;2023-03-23T03:37:36;2.70;;;1.70;;
24467;SDS011;12634;50.852;5.676;2023-03-23T03:40:05;4.22;;;2.00;;
24467;SDS011;12634;50.852;5.676;2023-03-23T03:42:37;3.17;;;1.88;;
24467;SDS011;12634;50.852;5.676;2023-03-23T03:45:05;5.03;;;1.98;;
24467;SDS011;12634;50.852;5.676;2023-03-23T03:47:34;3.58;;;2.05;;
24467;SDS011;12634;50.852;5.676;2023-03-23T03:50:01;3.88;;;1.73;;
24467;SDS011;12634;50.852;5.676;2023-03-23T03:52:30;3.15;;;2.00;;
24467;SDS011;12634;50.852;5.676;2023-03-23T03:54:57;3.42;;;1.75;;
24467;SDS011;12634;50.852;5.676;2023-03-23T03:57:24;3.13;;;1.73;;
24467;SDS011;12634;50.852;5.676;2023-03-23T03:59:51;4.15;;;2.00;;
24467;SDS011;12634;50.852;5.676;2023-03-23T04:02:19;2.42;;;1.50;;
24467;SDS011;12634;50.852;5.676;2023-03-23T04:04:46;3.47;;;1.63;;
24467;SDS011;12634;50.852;5.676;2023-03-23T04:07:14;5.50;;;2.42;;
24467;SDS011;12634;50.852;5.676;2023-03-23T04:09:44;4.45;;;1.95;;
24467;SDS011;12634;50.852;5.676;2023-03-23T04:12:12;4.40;;;1.90;;
24467;SDS011;12634;50.852;5.676;2023-03-23T04:14:39;2.50;;;1.70;;
24467;SDS011;12634;50.852;5.676;2023-03-23T04:17:07;5.53;;;1.80;;
24467;SDS011;12634;50.852;5.676;2023-03-23T04:19:36;2.60;;;1.60;;
24467;SDS011;12634;50.852;5.676;2023-03-23T04:22:03;4.95;;;2.22;;
24467;SDS011;12634;50.852;5.676;2023-03-23T04:24:31;3.10;;;1.52;;
24467;SDS011;12634;50.852;5.676;2023-03-23T04:27:02;2.92;;;1.77;;
24467;SDS011;12634;50.852;5.676;2023-03-23T04:29:29;2.78;;;1.70;;
24467;SDS011;12634;50.852;5.676;2023-03-23T04:31:59;3.35;;;1.80;;
24467;SDS011;12634;50.852;5.676;2023-03-23T04:34:27;3.17;;;1.50;;
24467;SDS011;12634;50.852;5.676;2023-03-23T04:36:59;4.97;;;2.00;;
24467;SDS011;12634;50.852;5.676;2023-03-23T04:39:26;2.28;;;1.42;;
24467;SDS011;12634;50.852;5.676;2023-03-23T04:41:54;2.88;;;1.73;;
24467;SDS011;12634;50.852;5.676;2023-03-23T04:44:27;3.95;;;1.92;;
24467;SDS011;12634;50.852;5.676;2023-03-23T04:46:57;5.15;;;1.70;;
24467;SDS011;12634;50.852;5.676;2023-03-23T04:49:27;3.30;;;1.80;;
24467;SDS011;12634;50.852;5.676;2023-03-23T04:51:55;7.78;;;1.58;;
24467;SDS011;12634;50.852;5.676;2023-03-23T04:54:22;4.40;;;1.60;;
24467;SDS011;12634;50.852;5.676;2023-03-23T04:56:49;3.45;;;1.70;;
24467;SDS011;12634;50.852;5.676;2023-03-23T04:59:16;5.22;;;1.58;;
24467;SDS011;12634;50.852;5.676;2023-03-23T05:01:45;5.10;;;2.10;;
24467;SDS011;12634;50.852;5.676;2023-03-23T05:04:12;4.63;;;2.08;;
24467;SDS011;12634;50.852;5.676;2023-03-23T05:06:41;6.40;;;1.55;;
24467;SDS011;12634;50.852;5.676;2023-03-23T05:09:09;5.07;;;1.40;;
24467;SDS011;12634;50.852;5.676;2023-03-23T05:11:36;5.35;;;1.85;;
24467;SDS011;12634;50.852;5.676;2023-03-23T05:14:04;3.83;;;1.50;;
24467;SDS011;12634;50.852;5.676;2023-03-23T05:16:31;3.50;;;1.40;;
24467;SDS011;12634;50.852;5.676;2023-03-23T05:18:59;4.57;;;1.58;;
24467;SDS011;12634;50.852;5.676;2023-03-23T05:21:26;4.45;;;1.40;;
24467;SDS011;12634;50.852;5.676;2023-03-23T05:23:54;3.00;;;1.40;;
24467;SDS011;12634;50.852;5.676;2023-03-23T05:26:21;4.82;;;1.77;;
24467;SDS011;12634;50.852;5.676;2023-03-23T05:28:50;4.68;;;1.63;;
24467;SDS011;12634;50.852;5.676;2023-03-23T05:31:18;3.30;;;1.35;;
24467;SDS011;12634;50.852;5.676;2023-03-23T05:33:45;6.13;;;1.50;;
24467;SDS011;12634;50.852;5.676;2023-03-23T05:36:14;3.78;;;1.60;;
24467;SDS011;12634;50.852;5.676;2023-03-23T05:38:41;3.80;;;1.50;;
24467;SDS011;12634;50.852;5.676;2023-03-23T05:41:10;3.47;;;1.33;;
24467;SDS011;12634;50.852;5.676;2023-03-23T05:43:37;3.25;;;1.30;;
24467;SDS011;12634;50.852;5.676;2023-03-23T05:46:04;3.25;;;1.40;;
24467;SDS011;12634;50.852;5.676;2023-03-23T05:48:32;3.38;;;1.23;;
24467;SDS011;12634;50.852;5.676;2023-03-23T05:50:59;3.33;;;1.40;;
24467;SDS011;12634;50.852;5.676;2023-03-23T05:53:27;6.10;;;1.58;;
24467;SDS011;12634;50.852;5.676;2023-03-23T05:55:58;4.53;;;1.60;;
24467;SDS011;12634;50.852;5.676;2023-03-23T05:58:26;5.00;;;1.40;;
24467;SDS011;12634;50.852;5.676;2023-03-23T06:00:53;4.78;;;1.50;;
24467;SDS011;12634;50.852;5.676;2023-03-23T06:03:21;2.78;;;1.35;;
24467;SDS011;12634;50.852;5.676;2023-03-23T06:05:48;5.13;;;1.35;;
24467;SDS011;12634;50.852;5.676;2023-03-23T06:08:16;5.13;;;1.42;;
24467;SDS011;12634;50.852;5.676;2023-03-23T06:10:44;5.65;;;1.50;;
24467;SDS011;12634;50.852;5.676;2023-03-23T06:13:12;5.03;;;1.80;;
24467;SDS011;12634;50.852;5.676;2023-03-23T06:15:39;3.25;;;1.08;;
24467;SDS011;12634;50.852;5.676;2023-03-23T06:18:07;4.15;;;1.70;;
24467;SDS011;12634;50.852;5.676;2023-03-23T06:20:34;4.63;;;1.20;;
24467;SDS011;12634;50.852;5.676;2023-03-23T06:23:02;2.65;;;1.35;;
24467;SDS011;12634;50.852;5.676;2023-03-23T06:25:29;4.38;;;1.35;;
24467;SDS011;12634;50.852;5.676;2023-03-23T06:27:58;5.78;;;1.70;;
24467;SDS011;12634;50.852;5.676;2023-03-23T06:30:25;5.72;;;1.67;;
24467;SDS011;12634;50.852;5.676;2023-03-23T06:32:54;3.90;;;1.60;;
24467;SDS011;12634;50.852;5.676;2023-03-23T06:35:22;3.47;;;1.20;;
24467;SDS011;12634;50.852;5.676;2023-03-23T06:37:49;6.40;;;1.27;;
24467;SDS011;12634;50.852;5.676;2023-03-23T06:40:16;3.22;;;1.20;;
24467;SDS011;12634;50.852;5.676;2023-03-23T06:42:44;4.38;;;1.20;;
24467;SDS011;12634;50.852;5.676;2023-03-23T06:45:13;4.47;;;1.55;;
24467;SDS011;12634;50.852;5.676;2023-03-23T06:47:41;3.88;;;1.25;;
24467;SDS011;12634;50.852;5.676;2023-03-23T06:50:08;2.60;;;1.60;;
24467;SDS011;12634;50.852;5.676;2023-03-23T06:52:36;3.78;;;1.27;;
24467;SDS011;12634;50.852;5.676;2023-03-23T06:55:03;3.10;;;1.10;;
24467;SDS011;12634;50.852;5.676;2023-03-23T06:57:32;4.70;;;1.30;;
24467;SDS011;12634;50.852;5.676;2023-03-23T06:59:59;2.40;;;1.10;;
24467;SDS011;12634;50.852;5.676;2023-03-23T07:02:31;6.07;;;1.30;;
24467;SDS011;12634;50.852;5.676;2023-03-23T07:04:59;2.90;;;1.42;;
24467;SDS011;12634;50.852;5.676;2023-03-23T07:07:26;4.85;;;1.60;;
24467;SDS011;12634;50.852;5.676;2023-03-23T07:09:53;7.72;;;1.35;;
24467;SDS011;12634;50.852;5.676;2023-03-23T07:12:21;4.70;;;1.20;;
24467;SDS011;12634;50.852;5.676;2023-03-23T07:14:48;6.40;;;1.10;;
24467;SDS011;12634;50.852;5.676;2023-03-23T07:17:15;3.40;;;1.17;;
24467;SDS011;12634;50.852;5.676;2023-03-23T07:19:43;3.10;;;1.10;;
24467;SDS011;12634;50.852;5.676;2023-03-23T07:22:11;4.28;;;1.40;;
24467;SDS011;12634;50.852;5.676;2023-03-23T07:24:38;4.07;;;1.58;;
24467;SDS011;12634;50.852;5.676;2023-03-23T07:27:05;5.55;;;1.15;;
24467;SDS011;12634;50.852;5.676;2023-03-23T07:29:32;6.90;;;1.10;;
24467;SDS011;12634;50.852;5.676;2023-03-23T07:32:00;3.45;;;1.30;;
24467;SDS011;12634;50.852;5.676;2023-03-23T07:34:27;3.67;;;1.13;;
24467;SDS011;12634;50.852;5.676;2023-03-23T07:36:56;4.22;;;1.35;;
24467;SDS011;12634;50.852;5.676;2023-03-23T07:39:23;2.83;;;1.20;;
24467;SDS011;12634;50.852;5.676;2023-03-23T07:41:51;2.05;;;1.00;;
24467;SDS011;12634;50.852;5.676;2023-03-23T07:44:18;3.42;;;1.25;;
24467;SDS011;12634;50.852;5.676;2023-03-23T07:46:45;4.70;;;1.38;;
24467;SDS011;12634;50.852;5.676;2023-03-23T07:49:13;5.75;;;1.27;;
24467;SDS011;12634;50.852;5.676;2023-03-23T07:51:40;4.47;;;1.35;;
24467;SDS011;12634;50.852;5.676;2023-03-23T07:54:09;3.80;;;1.10;;
24467;SDS011;12634;50.852;5.676;2023-03-23T07:56:36;5.43;;;1.13;;
24467;SDS011;12634;50.852;5.676;2023-03-23T07:59:05;3.38;;;1.17;;
24467;SDS011;12634;50.852;5.676;2023-03-23T08:01:33;2.67;;;1.23;;
24467;SDS011;12634;50.852;5.676;2023-03-23T08:04:00;8.43;;;1.67;;
24467;SDS011;12634;50.852;5.676;2023-03-23T08:06:27;3.55;;;1.15;;
24467;SDS011;12634;50.852;5.676;2023-03-23T08:08:55;2.03;;;1.08;;
24467;SDS011;12634;50.852;5.676;2023-03-23T08:11:24;2.75;;;0.93;;
24467;SDS011;12634;50.852;5.676;2023-03-23T08:13:51;6.15;;;1.52;;
24467;SDS011;12634;50.852;5.676;2023-03-23T08:16:19;4.70;;;1.45;;
24467;SDS011;12634;50.852;5.676;2023-03-23T08:18:46;5.30;;;1.30;;
24467;SDS011;12634;50.852;5.676;2023-03-23T08:21:13;3.95;;;1.52;;
24467;SDS011;12634;50.852;5.676;2023-03-23T08:23:40;4.35;;;1.27;;
24467;SDS011;12634;50.852;5.676;2023-03-23T08:26:09;7.93;;;1.73;;
24467;SDS011;12634;50.852;5.676;2023-03-23T08:28:38;6.43;;;1.30;;
24467;SDS011;12634;50.852;5.676;2023-03-23T08:31:06;4.35;;;1.20;;
24467;SDS011;12634;50.852;5.676;2023-03-23T08:33:35;4.30;;;1.20;;
24467;SDS011;12634;50.852;5.676;2023-03-23T08:36:03;3.65;;;1.10;;
24467;SDS011;12634;50.852;5.676;2023-03-23T08:38:31;5.35;;;1.38;;
24467;SDS011;12634;50.852;5.676;2023-03-23T08:40:58;4.65;;;1.25;;
24467;SDS011;12634;50.852;5.676;2023-03-23T08:43:26;4.35;;;1.38;;
24467;SDS011;12634;50.852;5.676;2023-03-23T08:45:55;3.83;;;1.15;;
24467;SDS011;12634;50.852;5.676;2023-03-23T08:48:22;7.18;;;1.50;;
24467;SDS011;12634;50.852;5.676;2023-03-23T08:50:49;5.35;;;1.23;;
24467;SDS011;12634;50.852;5.676;2023-03-23T08:53:18;4.03;;;1.45;;
24467;SDS011;12634;50.852;5.676;2023-03-23T08:55:46;4.95;;;1.30;;
24467;SDS011;12634;50.852;5.676;2023-03-23T08:58:14;2.72;;;0.90;;
24467;SDS011;12634;50.852;5.676;2023-03-23T09:00:43;4.25;;;0.90;;
24467;SDS011;12634;50.852;5.676;2023-03-23T09:03:12;3.50;;;1.20;;
24467;SDS011;12634;50.852;5.676;2023-03-23T09:05:40;2.97;;;1.00;;
24467;SDS011;12634;50.852;5.676;2023-03-23T09:08:10;3.15;;;1.10;;
24467;SDS011;12634;50.852;5.676;2023-03-23T09:10:38;2.38;;;1.02;;
24467;SDS011;12634;50.852;5.676;2023-03-23T09:13:05;3.85;;;1.00;;
24467;SDS011;12634;50.852;5.676;2023-03-23T09:15:33;3.90;;;1.00;;
24467;SDS011;12634;50.852;5.676;2023-03-23T09:18:00;4.32;;;1.40;;
24467;SDS011;12634;50.852;5.676;2023-03-23T09:20:28;3.85;;;1.25;;
24467;SDS011;12634;50.852;5.676;2023-03-23T09:22:56;4.50;;;1.30;;
24467;SDS011;12634;50.852;5.676;2023-03-23T09:25:24;4.25;;;1.20;;
24467;SDS011;12634;50.852;5.676;2023-03-23T09:27:53;3.88;;;1.20;;
24467;SDS011;12634;50.852;5.676;2023-03-23T09:30:22;2.47;;;0.90;;
24467;SDS011;12634;50.852;5.676;2023-03-23T09:32:51;4.38;;;1.00;;
24467;SDS011;12634;50.852;5.676;2023-03-23T09:35:19;2.22;;;0.98;;
24467;SDS011;12634;50.852;5.676;2023-03-23T09:37:49;4.13;;;1.10;;
24467;SDS011;12634;50.852;5.676;2023-03-23T09:40:18;5.40;;;1.45;;
24467;SDS011;12634;50.852;5.676;2023-03-23T09:42:51;2.88;;;0.98;;
24467;SDS011;12634;50.852;5.676;2023-03-23T09:48:10;3.28;;;0.90;;
24467;SDS011;12634;50.852;5.676;2023-03-23T09:50:56;3.90;;;0.80;;
24467;SDS011;12634;50.852;5.676;2023-03-23T09:53:30;5.40;;;0.88;;
24467;SDS011;12634;50.852;5.676;2023-03-23T09:56:08;2.78;;;0.90;;
24467;SDS011;12634;50.852;5.676;2023-03-23T09:58:37;3.63;;;0.90;;
24467;SDS011;12634;50.852;5.676;2023-03-23T10:01:14;1.90;;;1.00;;
24467;SDS011;12634;50.852;5.676;2023-03-23T10:03:46;7.82;;;1.25;;
24467;SDS011;12634;50.852;5.676;2023-03-23T10:06:14;1.73;;;0.93;;
24467;SDS011;12634;50.852;5.676;2023-03-23T10:08:48;4.65;;;1.30;;
24467;SDS011;12634;50.852;5.676;2023-03-23T10:11:21;1.67;;;0.80;;
24467;SDS011;12634;50.852;5.676;2023-03-23T10:14:06;5.28;;;1.10;;
24467;SDS011;12634;50.852;5.676;2023-03-23T10:16:40;3.63;;;1.30;;
24467;SDS011;12634;50.852;5.676;2023-03-23T10:19:23;1.25;;;0.52;;
24467;SDS011;12634;50.852;5.676;2023-03-23T10:21:58;2.55;;;0.98;;
24467;SDS011;12634;50.852;5.676;2023-03-23T10:24:32;2.83;;;0.88;;
24467;SDS011;12634;50.852;5.676;2023-03-23T10:27:07;3.90;;;0.80;;
24467;SDS011;12634;50.852;5.676;2023-03-23T10:29:43;1.80;;;0.90;;
24467;SDS011;12634;50.852;5.676;2023-03-23T10:32:16;3.00;;;0.95;;
24467;SDS011;12634;50.852;5.676;2023-03-23T10:34:47;3.70;;;0.90;;
24467;SDS011;12634;50.852;5.676;2023-03-23T10:37:20;2.90;;;0.90;;
24467;SDS011;12634;50.852;5.676;2023-03-23T10:39:52;2.65;;;0.85;;
24467;SDS011;12634;50.852;5.676;2023-03-23T10:42:24;2.58;;;0.70;;
24467;SDS011;12634;50.852;5.676;2023-03-23T10:44:53;2.00;;;1.00;;
24467;SDS011;12634;50.852;5.676;2023-03-23T10:47:21;0.38;;;0.32;;
24467;SDS011;12634;50.852;5.676;2023-03-23T10:49:51;3.17;;;0.70;;
24467;SDS011;12634;50.852;5.676;2023-03-23T10:52:24;2.88;;;0.60;;
24467;SDS011;12634;50.852;5.676;2023-03-23T10:54:58;0.85;;;0.60;;
24467;SDS011;12634;50.852;5.676;2023-03-23T10:57:32;1.80;;;0.60;;
24467;SDS011;12634;50.852;5.676;2023-03-23T11:00:04;3.20;;;0.73;;
24467;SDS011;12634;50.852;5.676;2023-03-23T11:02:38;5.40;;;0.80;;
24467;SDS011;12634;50.852;5.676;2023-03-23T11:05:16;1.17;;;0.60;;
24467;SDS011;12634;50.852;5.676;2023-03-23T11:07:54;1.42;;;0.68;;
24467;SDS011;12634;50.852;5.676;2023-03-23T11:10:26;2.95;;;0.70;;
24467;SDS011;12634;50.852;5.676;2023-03-23T11:12:56;2.85;;;0.80;;
24467;SDS011;12634;50.852;5.676;2023-03-23T11:15:27;4.38;;;1.20;;
24467;SDS011;12634;50.852;5.676;2023-03-23T11:17:56;2.55;;;1.33;;
24467;SDS011;12634;50.852;5.676;2023-03-23T11:20:29;1.77;;;0.93;;
24467;SDS011;12634;50.852;5.676;2023-03-23T11:23:01;2.25;;;1.10;;
24467;SDS011;12634;50.852;5.676;2023-03-23T11:25:39;1.20;;;0.60;;
24467;SDS011;12634;50.852;5.676;2023-03-23T11:28:18;1.02;;;0.73;;
24467;SDS011;12634;50.852;5.676;2023-03-23T11:30:45;2.55;;;1.10;;
24467;SDS011;12634;50.852;5.676;2023-03-23T11:33:13;5.68;;;1.10;;
24467;SDS011;12634;50.852;5.676;2023-03-23T11:35:43;3.15;;;1.60;;
24467;SDS011;12634;50.852;5.676;2023-03-23T11:38:15;2.55;;;0.77;;
24467;SDS011;12634;50.852;5.676;2023-03-23T11:40:48;2.63;;;1.20;;
24467;SDS011;12634;50.852;5.676;2023-03-23T11:43:18;2.10;;;1.03;;
24467;SDS011;12634;50.852;5.676;2023-03-23T11:45:47;3.10;;;0.80;;
24467;SDS011;12634;50.852;5.676;2023-03-23T11:48:19;3.63;;;1.20;;
24467;SDS011;12634;50.852;5.676;2023-03-23T11:50:54;1.67;;;0.77;;
24467;SDS011;12634;50.852;5.676;2023-03-23T11:53:31;3.28;;;1.05;;
24467;SDS011;12634;50.852;5.676;2023-03-23T11:56:11;3.28;;;1.10;;
24467;SDS011;12634;50.852;5.676;2023-03-23T11:58:43;2.35;;;1.13;;
24467;SDS011;12634;50.852;5.676;2023-03-23T12:01:13;4.32;;;1.50;;
24467;SDS011;12634;50.852;5.676;2023-03-23T12:03:56;2.47;;;1.02;;
24467;SDS011;12634;50.852;5.676;2023-03-23T12:06:33;1.92;;;0.77;;
24467;SDS011;12634;50.852;5.676;2023-03-23T12:09:11;5.13;;;1.00;;
24467;SDS011;12634;50.852;5.676;2023-03-23T12:11:51;3.13;;;0.90;;
24467;SDS011;12634;50.852;5.676;2023-03-23T12:14:26;4.13;;;1.20;;
24467;SDS011;12634;50.852;5.676;2023-03-23T12:17:00;3.40;;;0.93;;
24467;SDS011;12634;50.852;5.676;2023-03-23T12:19:37;4.38;;;1.02;;
24467;SDS011;12634;50.852;5.676;2023-03-23T12:24:45;2.72;;;1.00;;
24467;SDS011;12634;50.852;5.676;2023-03-23T12:27:23;2.72;;;0.93;;
24467;SDS011;12634;50.852;5.676;2023-03-23T12:30:02;3.50;;;1.00;;
24467;SDS011;12634;50.852;5.676;2023-03-23T12:32:41;3.38;;;1.13;;
24467;SDS011;12634;50.852;5.676;2023-03-23T12:40:59;3.50;;;1.17;;
24467;SDS011;12634;50.852;5.676;2023-03-23T12:43:36;6.45;;;1.40;;
24467;SDS011;12634;50.852;5.676;2023-03-23T12:49:00;3.83;;;0.85;;
24467;SDS011;12634;50.852;5.676;2023-03-23T12:51:33;1.17;;;0.55;;
24467;SDS011;12634;50.852;5.676;2023-03-23T12:54:07;2.05;;;0.65;;
24467;SDS011;12634;50.852;5.676;2023-03-23T12:56:39;3.35;;;1.00;;
24467;SDS011;12634;50.852;5.676;2023-03-23T12:59:12;2.33;;;0.95;;
24467;SDS011;12634;50.852;5.676;2023-03-23T13:01:44;6.13;;;1.10;;
24467;SDS011;12634;50.852;5.676;2023-03-23T13:04:16;5.22;;;1.20;;
24467;SDS011;12634;50.852;5.676;2023-03-23T13:06:47;3.28;;;1.10;;
24467;SDS011;12634;50.852;5.676;2023-03-23T13:09:16;4.18;;;1.10;;
24467;SDS011;12634;50.852;5.676;2023-03-23T13:11:47;3.90;;;1.30;;
24467;SDS011;12634;50.852;5.676;2023-03-23T13:14:21;3.92;;;1.10;;
24467;SDS011;12634;50.852;5.676;2023-03-23T13:17:05;5.45;;;1.52;;
24467;SDS011;12634;50.852;5.676;2023-03-23T13:19:49;2.95;;;0.90;;
24467;SDS011;12634;50.852;5.676;2023-03-23T13:22:26;3.22;;;0.98;;
24467;SDS011;12634;50.852;5.676;2023-03-23T13:25:00;5.07;;;0.90;;
24467;SDS011;12634;50.852;5.676;2023-03-23T13:27:29;4.05;;;0.90;;
24467;SDS011;12634;50.852;5.676;2023-03-23T13:29:58;3.03;;;1.05;;
24467;SDS011;12634;50.852;5.676;2023-03-23T13:32:30;4.68;;;1.27;;
24467;SDS011;12634;50.852;5.676;2023-03-23T13:35:01;2.88;;;1.00;;
24467;SDS011;12634;50.852;5.676;2023-03-23T13:37:30;5.30;;;1.23;;
24467;SDS011;12634;50.852;5.676;2023-03-23T13:40:11;6.10;;;1.20;;
24467;SDS011;12634;50.852;5.676;2023-03-23T13:42:48;5.10;;;1.40;;
24467;SDS011;12634;50.852;5.676;2023-03-23T13:45:21;5.13;;;1.40;;
24467;SDS011;12634;50.852;5.676;2023-03-23T13:48:02;5.07;;;1.50;;
24467;SDS011;12634;50.852;5.676;2023-03-23T13:50:31;5.15;;;1.65;;
24467;SDS011;12634;50.852;5.676;2023-03-23T13:53:14;5.50;;;1.20;;
24467;SDS011;12634;50.852;5.676;2023-03-23T13:55:51;5.45;;;1.98;;
24467;SDS011;12634;50.852;5.676;2023-03-23T13:58:30;3.80;;;1.48;;
24467;SDS011;12634;50.852;5.676;2023-03-23T14:01:08;4.65;;;1.60;;
24467;SDS011;12634;50.852;5.676;2023-03-23T14:03:41;5.38;;;1.90;;
24467;SDS011;12634;50.852;5.676;2023-03-23T14:06:15;5.88;;;1.75;;
24467;SDS011;12634;50.852;5.676;2023-03-23T14:08:46;6.97;;;1.80;;
24467;SDS011;12634;50.852;5.676;2023-03-23T14:11:17;5.40;;;1.75;;
24467;SDS011;12634;50.852;5.676;2023-03-23T14:13:51;7.65;;;2.08;;
24467;SDS011;12634;50.852;5.676;2023-03-23T14:16:32;5.78;;;1.88;;
24467;SDS011;12634;50.852;5.676;2023-03-23T14:19:04;4.90;;;1.55;;
24467;SDS011;12634;50.852;5.676;2023-03-23T14:21:42;3.65;;;1.30;;
24467;SDS011;12634;50.852;5.676;2023-03-23T14:24:17;3.20;;;1.67;;
24467;SDS011;12634;50.852;5.676;2023-03-23T14:26:48;6.10;;;1.65;;
24467;SDS011;12634;50.852;5.676;2023-03-23T14:29:17;4.18;;;1.40;;
24467;SDS011;12634;50.852;5.676;2023-03-23T14:31:50;6.00;;;1.75;;
24467;SDS011;12634;50.852;5.676;2023-03-23T14:34:21;3.15;;;1.27;;
24467;SDS011;12634;50.852;5.676;2023-03-23T14:36:52;10.18;;;1.98;;
24467;SDS011;12634;50.852;5.676;2023-03-23T14:39:22;4.40;;;1.60;;
24467;SDS011;12634;50.852;5.676;2023-03-23T14:41:52;5.38;;;1.60;;
24467;SDS011;12634;50.852;5.676;2023-03-23T14:44:22;6.95;;;1.63;;
24467;SDS011;12634;50.852;5.676;2023-03-23T14:46:54;4.63;;;1.85;;
24467;SDS011;12634;50.852;5.676;2023-03-23T14:49:25;4.43;;;1.40;;
24467;SDS011;12634;50.852;5.676;2023-03-23T14:51:55;6.05;;;1.65;;
24467;SDS011;12634;50.852;5.676;2023-03-23T14:54:23;6.70;;;1.40;;
24467;SDS011;12634;50.852;5.676;2023-03-23T14:56:52;5.22;;;1.40;;
24467;SDS011;12634;50.852;5.676;2023-03-23T14:59:20;5.72;;;1.60;;
24467;SDS011;12634;50.852;5.676;2023-03-23T15:01:48;4.78;;;1.48;;
24467;SDS011;12634;50.852;5.676;2023-03-23T15:04:19;5.43;;;1.35;;
24467;SDS011;12634;50.852;5.676;2023-03-23T15:06:50;7.78;;;1.80;;
24467;SDS011;12634;50.852;5.676;2023-03-23T15:09:21;4.22;;;1.33;;
24467;SDS011;12634;50.852;5.676;2023-03-23T15:11:51;5.13;;;1.73;;
24467;SDS011;12634;50.852;5.676;2023-03-23T15:14:22;3.17;;;1.40;;
24467;SDS011;12634;50.852;5.676;2023-03-23T15:16:52;9.85;;;1.90;;
24467;SDS011;12634;50.852;5.676;2023-03-23T15:19:24;6.68;;;1.52;;
24467;SDS011;12634;50.852;5.676;2023-03-23T15:21:55;5.35;;;1.25;;
24467;SDS011;12634;50.852;5.676;2023-03-23T15:24:27;6.45;;;2.20;;
24467;SDS011;12634;50.852;5.676;2023-03-23T15:27:14;4.75;;;1.75;;
24467;SDS011;12634;50.852;5.676;2023-03-23T15:29:51;5.85;;;1.50;;